sensor_id;sensor_type;location;lat;lon;timestamp;temperature;humidity
13856;DHT22;6998;53.608;9.958;2023-04-28T00:01:14;5.90;99.90
13856;DHT22;6998;53.608;9.958;2023-04-28T00:03:41;5.90;99.90
13856;DHT22;6998;53.608;9.958;2023-04-28T00:06:08;5.90;99.90
13856;DHT22;6998;53.608;9.958;2023-04-28T00:08:35;5.90;99.90
13856;DHT22;6998;53.608;9.958;2023-04-28T00:11:02;5.90;99.90
13856;DHT22;6998;53.608;9.958;2023-04-28T00:13:30;5.80;99.90
13856;DHT22;6998;53.608;9.958;2023-04-28T00:15:57;5.80;99.90
13856;DHT22;6998;53.608;9.958;2023-04-28T00:18:24;5.80;99.90
13856;DHT22;6998;53.608;9.958;2023-04-28T00:20:51;5.90;99.90
13856;DHT22;6998;53.608;9.958;2023-04-28T00:23:18;5.80;99.90
13856;DHT22;6998;53.608;9.958;2023-04-28T00:25:50;5.80;99.90
13856;DHT22;6998;53.608;9.958;2023-04-28T00:28:16;5.80;99.90
13856;DHT22;6998;53.608;9.958;2023-04-28T00:30:46;5.80;99.90
13856;DHT22;6998;53.608;9.958;2023-04-28T00:33:13;5.70;99.90
13856;DHT22;6998;53.608;9.958;2023-04-28T00:35:40;5.70;99.90
13856;DHT22;6998;53.608;9.958;2023-04-28T00:38:07;5.60;99.90
13856;DHT22;6998;53.608;9.958;2023-04-28T00:40:34;5.60;99.90
13856;DHT22;6998;53.608;9.958;2023-04-28T00:43:01;5.50;99.90
13856;DHT22;6998;53.608;9.958;2023-04-28T00:45:28;5.40;99.90
13856;DHT22;6998;53.608;9.958;2023-04-28T00:47:58;5.40;99.90
13856;DHT22;6998;53.608;9.958;2023-04-28T00:50:25;5.30;99.90
13856;DHT22;6998;53.608;9.958;2023-04-28T00:52:52;5.20;99.90
13856;DHT22;6998;53.608;9.958;2023-04-28T00:55:18;5.10;99.90
13856;DHT22;6998;53.608;9.958;2023-04-28T00:57:46;5.00;99.90
13856;DHT22;6998;53.608;9.958;2023-04-28T01:00:14;5.00;99.90
13856;DHT22;6998;53.608;9.958;2023-04-28T01:02:41;4.90;99.90
13856;DHT22;6998;53.608;9.958;2023-04-28T01:05:10;4.80;99.90
13856;DHT22;6998;53.608;9.958;2023-04-28T01:07:37;4.80;99.90
13856;DHT22;6998;53.608;9.958;2023-04-28T01:10:05;4.70;99.90
13856;DHT22;6998;53.608;9.958;2023-04-28T01:12:32;4.70;99.90
13856;DHT22;6998;53.608;9.958;2023-04-28T01:14:59;4.60;99.90
13856;DHT22;6998;53.608;9.958;2023-04-28T01:17:26;4.60;99.90
13856;DHT22;6998;53.608;9.958;2023-04-28T01:19:52;4.60;99.90
13856;DHT22;6998;53.608;9.958;2023-04-28T01:22:21;4.50;99.90
13856;DHT22;6998;53.608;9.958;2023-04-28T01:24:49;4.50;99.90
13856;DHT22;6998;53.608;9.958;2023-04-28T01:27:16;4.40;99.90
13856;DHT22;6998;53.608;9.958;2023-04-28T01:29:43;4.40;99.90
13856;DHT22;6998;53.608;9.958;2023-04-28T01:32:10;4.30;99.90
13856;DHT22;6998;53.608;9.958;2023-04-28T01:34:37;4.30;99.90
13856;DHT22;6998;53.608;9.958;2023-04-28T01:37:03;4.30;99.90
13856;DHT22;6998;53.608;9.958;2023-04-28T01:39:30;4.20;99.90
13856;DHT22;6998;53.608;9.958;2023-04-28T01:41:58;4.20;99.90
13856;DHT22;6998;53.608;9.958;2023-04-28T01:44:26;4.10;99.90
13856;DHT22;6998;53.608;9.958;2023-04-28T01:46:53;4.10;99.90
13856;DHT22;6998;53.608;9.958;2023-04-28T01:49:20;4.10;99.90
13856;DHT22;6998;53.608;9.958;2023-04-28T01:51:46;4.00;99.90
13856;DHT22;6998;53.608;9.958;2023-04-28T01:54:13;4.00;99.90
13856;DHT22;6998;53.608;9.958;2023-04-28T01:56:40;4.00;99.90
13856;DHT22;6998;53.608;9.958;2023-04-28T01:59:08;3.90;99.90
13856;DHT22;6998;53.608;9.958;2023-04-28T02:01:35;3.90;99.90
13856;DHT22;6998;53.608;9.958;2023-04-28T02:04:02;3.90;99.90
13856;DHT22;6998;53.608;9.958;2023-04-28T02:06:28;3.80;99.90
13856;DHT22;6998;53.608;9.958;2023-04-28T02:08:56;3.80;99.90
13856;DHT22;6998;53.608;9.958;2023-04-28T02:11:22;3.80;99.90
13856;DHT22;6998;53.608;9.958;2023-04-28T02:13:49;3.80;99.90
13856;DHT22;6998;53.608;9.958;2023-04-28T02:16:17;3.90;99.90
13856;DHT22;6998;53.608;9.958;2023-04-28T02:18:44;3.80;99.90
13856;DHT22;6998;53.608;9.958;2023-04-28T02:21:13;3.80;99.90
13856;DHT22;6998;53.608;9.958;2023-04-28T02:23:40;3.70;99.90
13856;DHT22;6998;53.608;9.958;2023-04-28T02:26:07;3.70;99.90
13856;DHT22;6998;53.608;9.958;2023-04-28T02:28:34;3.60;99.90
13856;DHT22;6998;53.608;9.958;2023-04-28T02:31:05;3.60;99.90
13856;DHT22;6998;53.608;9.958;2023-04-28T02:33:33;3.60;99.90
13856;DHT22;6998;53.608;9.958;2023-04-28T02:36:01;3.50;99.90
13856;DHT22;6998;53.608;9.958;2023-04-28T02:38:27;3.50;99.90
13856;DHT22;6998;53.608;9.958;2023-04-28T02:40:58;3.50;99.90
13856;DHT22;6998;53.608;9.958;2023-04-28T02:43:25;3.50;99.90
13856;DHT22;6998;53.608;9.958;2023-04-28T02:45:52;3.40;99.90
13856;DHT22;6998;53.608;9.958;2023-04-28T02:48:19;3.40;99.90
13856;DHT22;6998;53.608;9.958;2023-04-28T02:50:47;3.40;99.90
13856;DHT22;6998;53.608;9.958;2023-04-28T02:53:14;3.40;99.90
13856;DHT22;6998;53.608;9.958;2023-04-28T02:55:41;3.30;99.90
13856;DHT22;6998;53.608;9.958;2023-04-28T02:58:07;3.30;99.90
13856;DHT22;6998;53.608;9.958;2023-04-28T03:00:34;3.30;99.90
13856;DHT22;6998;53.608;9.958;2023-04-28T03:03:01;3.20;99.90
13856;DHT22;6998;53.608;9.958;2023-04-28T03:05:28;3.20;99.90
13856;DHT22;6998;53.608;9.958;2023-04-28T03:07:56;3.10;99.90
13856;DHT22;6998;53.608;9.958;2023-04-28T03:10:23;3.10;99.90
13856;DHT22;6998;53.608;9.958;2023-04-28T03:12:50;3.20;99.90
13856;DHT22;6998;53.608;9.958;2023-04-28T03:15:17;3.10;99.90
13856;DHT22;6998;53.608;9.958;2023-04-28T03:17:44;3.10;99.90
13856;DHT22;6998;53.608;9.958;2023-04-28T03:20:11;3.10;99.90
13856;DHT22;6998;53.608;9.958;2023-04-28T03:22:38;3.10;99.90
13856;DHT22;6998;53.608;9.958;2023-04-28T03:25:07;3.10;99.90
13856;DHT22;6998;53.608;9.958;2023-04-28T03:27:34;3.10;99.90
13856;DHT22;6998;53.608;9.958;2023-04-28T03:30:01;3.00;99.90
13856;DHT22;6998;53.608;9.958;2023-04-28T03:32:28;3.30;99.90
13856;DHT22;6998;53.608;9.958;2023-04-28T03:34:55;2.90;99.90
13856;DHT22;6998;53.608;9.958;2023-04-28T03:37:22;2.90;99.90
13856;DHT22;6998;53.608;9.958;2023-04-28T03:39:48;2.90;99.90
13856;DHT22;6998;53.608;9.958;2023-04-28T03:42:17;2.90;99.90
13856;DHT22;6998;53.608;9.958;2023-04-28T03:44:43;2.90;99.90
13856;DHT22;6998;53.608;9.958;2023-04-28T03:47:10;2.90;99.90
13856;DHT22;6998;53.608;9.958;2023-04-28T03:49:37;2.90;99.90
13856;DHT22;6998;53.608;9.958;2023-04-28T03:52:04;2.80;99.90
13856;DHT22;6998;53.608;9.958;2023-04-28T03:54:31;2.80;99.90
13856;DHT22;6998;53.608;9.958;2023-04-28T03:56:58;2.80;99.90
13856;DHT22;6998;53.608;9.958;2023-04-28T03:59:26;2.80;99.90
13856;DHT22;6998;53.608;9.958;2023-04-28T04:01:53;2.80;99.90
13856;DHT22;6998;53.608;9.958;2023-04-28T04:04:20;2.80;99.90
13856;DHT22;6998;53.608;9.958;2023-04-28T04:06:47;2.80;99.90
13856;DHT22;6998;53.608;9.958;2023-04-28T04:09:14;2.80;99.90
13856;DHT22;6998;53.608;9.958;2023-04-28T04:11:41;2.80;99.90
13856;DHT22;6998;53.608;9.958;2023-04-28T04:14:08;2.80;99.90
13856;DHT22;6998;53.608;9.958;2023-04-28T04:16:36;2.80;99.90
13856;DHT22;6998;53.608;9.958;2023-04-28T04:19:03;2.80;99.90
13856;DHT22;6998;53.608;9.958;2023-04-28T04:21:30;2.80;99.90
13856;DHT22;6998;53.608;9.958;2023-04-28T04:23:57;2.80;99.90
13856;DHT22;6998;53.608;9.958;2023-04-28T04:26:24;2.80;99.90
13856;DHT22;6998;53.608;9.958;2023-04-28T04:28:51;2.80;99.90
13856;DHT22;6998;53.608;9.958;2023-04-28T04:31:18;2.90;99.90
13856;DHT22;6998;53.608;9.958;2023-04-28T04:33:46;2.90;99.90
13856;DHT22;6998;53.608;9.958;2023-04-28T04:36:13;2.90;99.90
13856;DHT22;6998;53.608;9.958;2023-04-28T04:38:40;2.90;99.90
13856;DHT22;6998;53.608;9.958;2023-04-28T04:41:07;3.00;99.90
13856;DHT22;6998;53.608;9.958;2023-04-28T04:43:33;3.00;99.90
13856;DHT22;6998;53.608;9.958;2023-04-28T04:46:00;3.00;99.90
13856;DHT22;6998;53.608;9.958;2023-04-28T04:48:28;3.10;99.90
13856;DHT22;6998;53.608;9.958;2023-04-28T04:50:56;3.20;99.90
13856;DHT22;6998;53.608;9.958;2023-04-28T04:53:23;3.20;99.90
13856;DHT22;6998;53.608;9.958;2023-04-28T04:55:50;3.20;99.90
13856;DHT22;6998;53.608;9.958;2023-04-28T04:58:17;3.40;99.90
13856;DHT22;6998;53.608;9.958;2023-04-28T05:00:44;3.50;99.90
13856;DHT22;6998;53.608;9.958;2023-04-28T05:03:11;3.60;99.90
13856;DHT22;6998;53.608;9.958;2023-04-28T05:05:38;3.70;99.90
13856;DHT22;6998;53.608;9.958;2023-04-28T05:08:06;3.70;99.90
13856;DHT22;6998;53.608;9.958;2023-04-28T05:10:33;3.80;99.90
13856;DHT22;6998;53.608;9.958;2023-04-28T05:13:00;4.00;99.90
13856;DHT22;6998;53.608;9.958;2023-04-28T05:15:27;4.10;99.90
13856;DHT22;6998;53.608;9.958;2023-04-28T05:17:56;4.20;99.90
13856;DHT22;6998;53.608;9.958;2023-04-28T05:20:23;4.30;99.90
13856;DHT22;6998;53.608;9.958;2023-04-28T05:22:50;4.30;99.90
13856;DHT22;6998;53.608;9.958;2023-04-28T05:25:19;4.40;99.90
13856;DHT22;6998;53.608;9.958;2023-04-28T05:27:45;4.50;99.90
13856;DHT22;6998;53.608;9.958;2023-04-28T05:30:12;4.60;99.90
13856;DHT22;6998;53.608;9.958;2023-04-28T05:32:40;4.80;99.90
13856;DHT22;6998;53.608;9.958;2023-04-28T05:35:07;4.80;99.90
13856;DHT22;6998;53.608;9.958;2023-04-28T05:37:34;5.00;99.90
13856;DHT22;6998;53.608;9.958;2023-04-28T05:40:02;5.00;99.90
13856;DHT22;6998;53.608;9.958;2023-04-28T05:42:31;5.10;99.90
13856;DHT22;6998;53.608;9.958;2023-04-28T05:44:58;5.20;99.90
13856;DHT22;6998;53.608;9.958;2023-04-28T05:47:24;5.30;99.90
13856;DHT22;6998;53.608;9.958;2023-04-28T05:49:51;5.40;99.90
13856;DHT22;6998;53.608;9.958;2023-04-28T05:52:18;5.40;99.90
13856;DHT22;6998;53.608;9.958;2023-04-28T05:54:45;5.40;99.90
13856;DHT22;6998;53.608;9.958;2023-04-28T05:57:11;5.50;99.90
13856;DHT22;6998;53.608;9.958;2023-04-28T05:59:40;5.60;99.90
13856;DHT22;6998;53.608;9.958;2023-04-28T06:02:07;5.70;99.90
13856;DHT22;6998;53.608;9.958;2023-04-28T06:04:33;5.80;99.90
13856;DHT22;6998;53.608;9.958;2023-04-28T06:07:00;6.00;99.90
13856;DHT22;6998;53.608;9.958;2023-04-28T06:09:27;6.10;99.90
13856;DHT22;6998;53.608;9.958;2023-04-28T06:11:54;6.30;99.90
13856;DHT22;6998;53.608;9.958;2023-04-28T06:14:21;6.40;99.90
13856;DHT22;6998;53.608;9.958;2023-04-28T06:16:50;6.50;99.90
13856;DHT22;6998;53.608;9.958;2023-04-28T06:19:17;6.60;99.90
13856;DHT22;6998;53.608;9.958;2023-04-28T06:21:44;6.80;99.90
13856;DHT22;6998;53.608;9.958;2023-04-28T06:24:11;6.80;99.90
13856;DHT22;6998;53.608;9.958;2023-04-28T06:26:38;6.90;99.90
13856;DHT22;6998;53.608;9.958;2023-04-28T06:29:04;7.10;99.90
13856;DHT22;6998;53.608;9.958;2023-04-28T06:31:31;7.10;99.90
13856;DHT22;6998;53.608;9.958;2023-04-28T06:33:59;7.20;99.90
13856;DHT22;6998;53.608;9.958;2023-04-28T06:36:26;7.40;99.90
13856;DHT22;6998;53.608;9.958;2023-04-28T06:38:53;7.60;99.90
13856;DHT22;6998;53.608;9.958;2023-04-28T06:41:20;7.70;99.90
13856;DHT22;6998;53.608;9.958;2023-04-28T06:43:47;7.80;99.90
13856;DHT22;6998;53.608;9.958;2023-04-28T06:46:15;8.00;99.90
13856;DHT22;6998;53.608;9.958;2023-04-28T06:48:42;8.10;99.90
13856;DHT22;6998;53.608;9.958;2023-04-28T06:51:10;8.30;99.90
13856;DHT22;6998;53.608;9.958;2023-04-28T06:53:37;8.40;99.90
13856;DHT22;6998;53.608;9.958;2023-04-28T06:56:04;8.50;99.90
13856;DHT22;6998;53.608;9.958;2023-04-28T06:58:31;8.60;99.90
13856;DHT22;6998;53.608;9.958;2023-04-28T07:00:58;8.80;99.90
13856;DHT22;6998;53.608;9.958;2023-04-28T07:03:25;8.90;99.90
13856;DHT22;6998;53.608;9.958;2023-04-28T07:05:52;9.00;99.90
13856;DHT22;6998;53.608;9.958;2023-04-28T07:08:21;9.10;99.90
13856;DHT22;6998;53.608;9.958;2023-04-28T07:10:47;9.30;99.90
13856;DHT22;6998;53.608;9.958;2023-04-28T07:13:14;9.40;99.90
13856;DHT22;6998;53.608;9.958;2023-04-28T07:15:41;9.50;99.90
13856;DHT22;6998;53.608;9.958;2023-04-28T07:18:08;9.70;99.90
13856;DHT22;6998;53.608;9.958;2023-04-28T07:20:34;9.80;99.90
13856;DHT22;6998;53.608;9.958;2023-04-28T07:23:01;9.80;99.90
13856;DHT22;6998;53.608;9.958;2023-04-28T07:25:30;9.90;99.90
13856;DHT22;6998;53.608;9.958;2023-04-28T07:27:57;10.10;99.90
13856;DHT22;6998;53.608;9.958;2023-04-28T07:30:24;10.20;99.90
13856;DHT22;6998;53.608;9.958;2023-04-28T07:32:51;10.30;99.90
13856;DHT22;6998;53.608;9.958;2023-04-28T07:35:17;10.40;99.90
13856;DHT22;6998;53.608;9.958;2023-04-28T07:37:44;10.50;99.90
13856;DHT22;6998;53.608;9.958;2023-04-28T07:40:11;10.70;99.90
13856;DHT22;6998;53.608;9.958;2023-04-28T07:42:39;10.90;99.90
13856;DHT22;6998;53.608;9.958;2023-04-28T07:45:07;11.10;99.90
13856;DHT22;6998;53.608;9.958;2023-04-28T07:47:35;11.20;99.90
13856;DHT22;6998;53.608;9.958;2023-04-28T07:50:03;11.40;99.90
13856;DHT22;6998;53.608;9.958;2023-04-28T07:52:41;11.50;99.90
13856;DHT22;6998;53.608;9.958;2023-04-28T07:55:08;11.50;99.90
13856;DHT22;6998;53.608;9.958;2023-04-28T07:57:35;11.60;99.90
13856;DHT22;6998;53.608;9.958;2023-04-28T08:00:06;11.70;99.90
13856;DHT22;6998;53.608;9.958;2023-04-28T08:02:34;11.80;99.90
13856;DHT22;6998;53.608;9.958;2023-04-28T08:05:01;12.00;99.90
13856;DHT22;6998;53.608;9.958;2023-04-28T08:07:28;12.10;99.90
13856;DHT22;6998;53.608;9.958;2023-04-28T08:09:55;12.20;99.90
13856;DHT22;6998;53.608;9.958;2023-04-28T08:12:22;12.40;99.90
13856;DHT22;6998;53.608;9.958;2023-04-28T08:14:49;12.50;99.90
13856;DHT22;6998;53.608;9.958;2023-04-28T08:17:18;12.60;99.90
13856;DHT22;6998;53.608;9.958;2023-04-28T08:19:46;12.60;99.90
13856;DHT22;6998;53.608;9.958;2023-04-28T08:22:13;12.60;99.90
13856;DHT22;6998;53.608;9.958;2023-04-28T08:24:40;12.70;99.90
13856;DHT22;6998;53.608;9.958;2023-04-28T08:27:09;12.80;99.90
13856;DHT22;6998;53.608;9.958;2023-04-28T08:29:37;12.90;99.90
13856;DHT22;6998;53.608;9.958;2023-04-28T08:32:04;13.10;99.90
13856;DHT22;6998;53.608;9.958;2023-04-28T08:34:40;13.10;99.90
13856;DHT22;6998;53.608;9.958;2023-04-28T08:37:08;13.10;99.90
13856;DHT22;6998;53.608;9.958;2023-04-28T08:39:35;13.10;99.90
13856;DHT22;6998;53.608;9.958;2023-04-28T08:42:02;13.10;99.90
13856;DHT22;6998;53.608;9.958;2023-04-28T08:44:34;13.20;99.90
13856;DHT22;6998;53.608;9.958;2023-04-28T08:47:03;13.30;99.90
13856;DHT22;6998;53.608;9.958;2023-04-28T08:49:35;13.30;99.90
13856;DHT22;6998;53.608;9.958;2023-04-28T08:52:09;13.60;99.90
13856;DHT22;6998;53.608;9.958;2023-04-28T08:54:41;13.70;99.90
13856;DHT22;6998;53.608;9.958;2023-04-28T08:57:10;13.80;99.90
13856;DHT22;6998;53.608;9.958;2023-04-28T08:59:38;13.80;99.90
13856;DHT22;6998;53.608;9.958;2023-04-28T09:02:07;13.90;99.90
13856;DHT22;6998;53.608;9.958;2023-04-28T09:04:35;14.00;99.90
13856;DHT22;6998;53.608;9.958;2023-04-28T09:07:02;13.90;99.90
13856;DHT22;6998;53.608;9.958;2023-04-28T09:09:29;14.00;99.90
13856;DHT22;6998;53.608;9.958;2023-04-28T09:11:58;14.10;99.90
13856;DHT22;6998;53.608;9.958;2023-04-28T09:14:26;14.20;99.90
13856;DHT22;6998;53.608;9.958;2023-04-28T09:16:57;14.10;99.90
13856;DHT22;6998;53.608;9.958;2023-04-28T09:19:32;14.20;99.90
13856;DHT22;6998;53.608;9.958;2023-04-28T09:22:02;14.30;99.90
13856;DHT22;6998;53.608;9.958;2023-04-28T09:24:32;14.20;99.90
13856;DHT22;6998;53.608;9.958;2023-04-28T09:27:01;13.90;99.90
13856;DHT22;6998;53.608;9.958;2023-04-28T09:29:29;14.10;99.90
13856;DHT22;6998;53.608;9.958;2023-04-28T09:32:12;14.10;99.90
13856;DHT22;6998;53.608;9.958;2023-04-28T09:34:45;14.20;99.90
13856;DHT22;6998;53.608;9.958;2023-04-28T09:37:18;14.20;99.90
13856;DHT22;6998;53.608;9.958;2023-04-28T09:39:46;14.10;99.90
13856;DHT22;6998;53.608;9.958;2023-04-28T09:42:31;14.20;99.90
13856;DHT22;6998;53.608;9.958;2023-04-28T09:44:59;14.30;99.90
13856;DHT22;6998;53.608;9.958;2023-04-28T09:47:27;14.20;99.90
13856;DHT22;6998;53.608;9.958;2023-04-28T09:49:54;14.30;99.90
13856;DHT22;6998;53.608;9.958;2023-04-28T09:52:23;14.40;99.90
13856;DHT22;6998;53.608;9.958;2023-04-28T09:54:51;14.80;99.90
13856;DHT22;6998;53.608;9.958;2023-04-28T09:57:18;14.90;99.90
13856;DHT22;6998;53.608;9.958;2023-04-28T09:59:47;14.90;99.90
13856;DHT22;6998;53.608;9.958;2023-04-28T10:02:15;14.90;99.90
13856;DHT22;6998;53.608;9.958;2023-04-28T10:04:43;15.10;99.90
13856;DHT22;6998;53.608;9.958;2023-04-28T10:07:11;15.20;99.90
13856;DHT22;6998;53.608;9.958;2023-04-28T10:09:40;15.30;99.90
13856;DHT22;6998;53.608;9.958;2023-04-28T10:12:09;15.30;99.90
13856;DHT22;6998;53.608;9.958;2023-04-28T10:14:36;15.50;99.90
13856;DHT22;6998;53.608;9.958;2023-04-28T10:17:03;15.50;99.90
13856;DHT22;6998;53.608;9.958;2023-04-28T10:19:31;15.30;99.90
13856;DHT22;6998;53.608;9.958;2023-04-28T10:22:12;15.30;99.90
13856;DHT22;6998;53.608;9.958;2023-04-28T10:24:58;15.30;99.90
13856;DHT22;6998;53.608;9.958;2023-04-28T10:27:34;15.20;99.90
13856;DHT22;6998;53.608;9.958;2023-04-28T10:30:12;15.20;99.90
13856;DHT22;6998;53.608;9.958;2023-04-28T10:32:39;15.20;99.90
13856;DHT22;6998;53.608;9.958;2023-04-28T10:35:40;14.90;99.90
13856;DHT22;6998;53.608;9.958;2023-04-28T10:38:08;14.60;99.90
13856;DHT22;6998;53.608;9.958;2023-04-28T10:40:38;14.60;99.90
13856;DHT22;6998;53.608;9.958;2023-04-28T10:43:06;14.70;99.90
13856;DHT22;6998;53.608;9.958;2023-04-28T10:45:58;14.80;99.90
13856;DHT22;6998;53.608;9.958;2023-04-28T10:48:56;15.00;99.90
13856;DHT22;6998;53.608;9.958;2023-04-28T10:51:27;15.20;99.90
13856;DHT22;6998;53.608;9.958;2023-04-28T10:54:16;15.30;99.90
13856;DHT22;6998;53.608;9.958;2023-04-28T10:57:16;15.30;99.90
13856;DHT22;6998;53.608;9.958;2023-04-28T10:59:47;15.50;99.90
13856;DHT22;6998;53.608;9.958;2023-04-28T11:02:37;15.70;99.90
13856;DHT22;6998;53.608;9.958;2023-04-28T11:05:18;15.90;99.90
13856;DHT22;6998;53.608;9.958;2023-04-28T11:11:15;16.40;99.90
13856;DHT22;6998;53.608;9.958;2023-04-28T11:17:05;16.80;99.90
13856;DHT22;6998;53.608;9.958;2023-04-28T11:19:34;16.50;99.90
13856;DHT22;6998;53.608;9.958;2023-04-28T11:22:05;16.70;99.90
13856;DHT22;6998;53.608;9.958;2023-04-28T11:24:36;16.90;99.90
13856;DHT22;6998;53.608;9.958;2023-04-28T11:27:03;16.70;99.90
13856;DHT22;6998;53.608;9.958;2023-04-28T11:29:30;16.80;99.90
13856;DHT22;6998;53.608;9.958;2023-04-28T11:31:58;16.80;99.90
13856;DHT22;6998;53.608;9.958;2023-04-28T11:34:26;17.10;99.90
13856;DHT22;6998;53.608;9.958;2023-04-28T11:36:53;17.30;99.90
13856;DHT22;6998;53.608;9.958;2023-04-28T11:39:25;17.40;99.90
13856;DHT22;6998;53.608;9.958;2023-04-28T11:41:52;17.50;99.90
13856;DHT22;6998;53.608;9.958;2023-04-28T11:44:20;17.60;99.90
13856;DHT22;6998;53.608;9.958;2023-04-28T11:46:48;17.60;99.90
13856;DHT22;6998;53.608;9.958;2023-04-28T11:49:19;17.70;99.90
13856;DHT22;6998;53.608;9.958;2023-04-28T11:51:48;17.70;99.90
13856;DHT22;6998;53.608;9.958;2023-04-28T11:54:19;17.60;99.90
13856;DHT22;6998;53.608;9.958;2023-04-28T11:56:46;17.90;99.90
13856;DHT22;6998;53.608;9.958;2023-04-28T11:59:13;17.90;99.90
13856;DHT22;6998;53.608;9.958;2023-04-28T12:01:45;17.90;99.90
13856;DHT22;6998;53.608;9.958;2023-04-28T12:04:12;17.90;99.90
13856;DHT22;6998;53.608;9.958;2023-04-28T12:06:39;17.80;99.90
13856;DHT22;6998;53.608;9.958;2023-04-28T12:09:17;17.70;99.90
13856;DHT22;6998;53.608;9.958;2023-04-28T12:11:53;17.50;99.90
13856;DHT22;6998;53.608;9.958;2023-04-28T12:14:20;17.60;99.90
13856;DHT22;6998;53.608;9.958;2023-04-28T12:16:46;17.50;99.90
13856;DHT22;6998;53.608;9.958;2023-04-28T12:19:15;17.40;99.90
13856;DHT22;6998;53.608;9.958;2023-04-28T12:21:42;17.10;99.90
13856;DHT22;6998;53.608;9.958;2023-04-28T12:24:17;16.90;99.90
13856;DHT22;6998;53.608;9.958;2023-04-28T12:26:45;16.80;99.90
13856;DHT22;6998;53.608;9.958;2023-04-28T12:29:34;16.70;99.90
13856;DHT22;6998;53.608;9.958;2023-04-28T12:32:01;16.60;99.90
13856;DHT22;6998;53.608;9.958;2023-04-28T12:34:27;16.50;99.90
13856;DHT22;6998;53.608;9.958;2023-04-28T12:36:55;16.50;99.90
13856;DHT22;6998;53.608;9.958;2023-04-28T12:39:23;16.30;99.90
13856;DHT22;6998;53.608;9.958;2023-04-28T12:41:51;16.20;99.90
13856;DHT22;6998;53.608;9.958;2023-04-28T12:44:18;16.10;99.90
13856;DHT22;6998;53.608;9.958;2023-04-28T12:46:45;16.00;99.90
13856;DHT22;6998;53.608;9.958;2023-04-28T12:49:12;16.00;99.90
13856;DHT22;6998;53.608;9.958;2023-04-28T12:51:40;16.00;99.90
13856;DHT22;6998;53.608;9.958;2023-04-28T12:54:06;15.90;99.90
13856;DHT22;6998;53.608;9.958;2023-04-28T12:56:35;15.90;99.90
13856;DHT22;6998;53.608;9.958;2023-04-28T12:59:01;15.90;99.90
13856;DHT22;6998;53.608;9.958;2023-04-28T13:01:28;15.80;99.90
13856;DHT22;6998;53.608;9.958;2023-04-28T13:03:55;15.70;99.90
13856;DHT22;6998;53.608;9.958;2023-04-28T13:06:22;15.70;99.90
13856;DHT22;6998;53.608;9.958;2023-04-28T13:08:48;15.60;99.90
13856;DHT22;6998;53.608;9.958;2023-04-28T13:11:15;15.50;99.90
13856;DHT22;6998;53.608;9.958;2023-04-28T13:13:43;15.40;99.90
13856;DHT22;6998;53.608;9.958;2023-04-28T13:16:10;15.50;99.90
13856;DHT22;6998;53.608;9.958;2023-04-28T13:18:38;15.50;99.90
13856;DHT22;6998;53.608;9.958;2023-04-28T13:21:05;15.40;99.90
13856;DHT22;6998;53.608;9.958;2023-04-28T13:23:32;15.40;99.90
13856;DHT22;6998;53.608;9.958;2023-04-28T13:25:59;15.40;99.90
13856;DHT22;6998;53.608;9.958;2023-04-28T13:28:27;15.40;99.90
13856;DHT22;6998;53.608;9.958;2023-04-28T13:30:55;15.20;99.90
13856;DHT22;6998;53.608;9.958;2023-04-28T13:33:22;15.10;99.90
13856;DHT22;6998;53.608;9.958;2023-04-28T13:35:55;15.00;99.90
13856;DHT22;6998;53.608;9.958;2023-04-28T13:38:22;15.00;99.90
13856;DHT22;6998;53.608;9.958;2023-04-28T13:40:50;15.10;99.90
13856;DHT22;6998;53.608;9.958;2023-04-28T13:43:16;15.10;99.90
13856;DHT22;6998;53.608;9.958;2023-04-28T13:45:44;15.20;99.90
13856;DHT22;6998;53.608;9.958;2023-04-28T13:48:12;15.10;99.90
13856;DHT22;6998;53.608;9.958;2023-04-28T13:50:39;15.10;99.90
13856;DHT22;6998;53.608;9.958;2023-04-28T13:53:05;15.00;99.90
13856;DHT22;6998;53.608;9.958;2023-04-28T13:55:32;15.10;99.90
13856;DHT22;6998;53.608;9.958;2023-04-28T13:57:59;15.10;99.90
13856;DHT22;6998;53.608;9.958;2023-04-28T14:00:29;15.10;99.90
13856;DHT22;6998;53.608;9.958;2023-04-28T14:02:56;15.20;99.90
13856;DHT22;6998;53.608;9.958;2023-04-28T14:05:25;15.30;99.90
13856;DHT22;6998;53.608;9.958;2023-04-28T14:07:52;15.40;99.90
13856;DHT22;6998;53.608;9.958;2023-04-28T14:10:19;15.50;99.90
13856;DHT22;6998;53.608;9.958;2023-04-28T14:12:46;15.50;99.90
13856;DHT22;6998;53.608;9.958;2023-04-28T14:15:13;15.50;99.90
13856;DHT22;6998;53.608;9.958;2023-04-28T14:17:40;15.50;99.90
13856;DHT22;6998;53.608;9.958;2023-04-28T14:20:08;15.40;99.90
13856;DHT22;6998;53.608;9.958;2023-04-28T14:22:37;15.30;99.90
13856;DHT22;6998;53.608;9.958;2023-04-28T14:25:04;15.30;99.90
13856;DHT22;6998;53.608;9.958;2023-04-28T14:27:32;15.40;99.90
13856;DHT22;6998;53.608;9.958;2023-04-28T14:29:59;15.20;99.90
13856;DHT22;6998;53.608;9.958;2023-04-28T14:32:26;15.20;99.90
13856;DHT22;6998;53.608;9.958;2023-04-28T14:34:53;15.20;99.90
13856;DHT22;6998;53.608;9.958;2023-04-28T14:37:19;15.30;99.90
13856;DHT22;6998;53.608;9.958;2023-04-28T14:39:48;15.10;99.90
13856;DHT22;6998;53.608;9.958;2023-04-28T14:42:14;15.00;99.90
13856;DHT22;6998;53.608;9.958;2023-04-28T14:44:42;14.90;99.90
13856;DHT22;6998;53.608;9.958;2023-04-28T14:47:09;14.90;99.90
13856;DHT22;6998;53.608;9.958;2023-04-28T14:49:36;14.90;99.90
13856;DHT22;6998;53.608;9.958;2023-04-28T14:52:04;14.70;99.90
13856;DHT22;6998;53.608;9.958;2023-04-28T14:54:31;14.60;99.90
13856;DHT22;6998;53.608;9.958;2023-04-28T14:56:59;14.60;99.90
13856;DHT22;6998;53.608;9.958;2023-04-28T14:59:27;14.50;99.90
13856;DHT22;6998;53.608;9.958;2023-04-28T15:01:54;14.50;99.90
13856;DHT22;6998;53.608;9.958;2023-04-28T15:04:21;14.40;99.90
13856;DHT22;6998;53.608;9.958;2023-04-28T15:06:53;14.30;99.90
13856;DHT22;6998;53.608;9.958;2023-04-28T15:09:20;14.40;99.90
13856;DHT22;6998;53.608;9.958;2023-04-28T15:11:46;14.50;99.90
13856;DHT22;6998;53.608;9.958;2023-04-28T15:14:14;14.50;99.90
13856;DHT22;6998;53.608;9.958;2023-04-28T15:16:42;14.40;99.90
13856;DHT22;6998;53.608;9.958;2023-04-28T15:19:09;14.20;99.90
13856;DHT22;6998;53.608;9.958;2023-04-28T15:21:37;14.20;99.90
13856;DHT22;6998;53.608;9.958;2023-04-28T15:24:04;14.10;99.90
13856;DHT22;6998;53.608;9.958;2023-04-28T15:26:31;14.00;99.90
13856;DHT22;6998;53.608;9.958;2023-04-28T15:28:58;14.00;99.90
13856;DHT22;6998;53.608;9.958;2023-04-28T15:31:26;14.00;99.90
13856;DHT22;6998;53.608;9.958;2023-04-28T15:33:54;14.00;99.90
13856;DHT22;6998;53.608;9.958;2023-04-28T15:36:21;14.30;99.90
13856;DHT22;6998;53.608;9.958;2023-04-28T15:38:48;14.10;99.90
13856;DHT22;6998;53.608;9.958;2023-04-28T15:41:16;14.10;99.90
13856;DHT22;6998;53.608;9.958;2023-04-28T15:43:43;14.00;99.90
13856;DHT22;6998;53.608;9.958;2023-04-28T15:46:10;14.00;99.90
13856;DHT22;6998;53.608;9.958;2023-04-28T15:48:40;14.10;99.90
13856;DHT22;6998;53.608;9.958;2023-04-28T15:51:09;14.10;99.90
13856;DHT22;6998;53.608;9.958;2023-04-28T15:53:36;14.10;99.90
13856;DHT22;6998;53.608;9.958;2023-04-28T15:56:03;13.90;99.90
13856;DHT22;6998;53.608;9.958;2023-04-28T15:58:30;13.80;99.90
13856;DHT22;6998;53.608;9.958;2023-04-28T16:00:57;13.70;99.90
13856;DHT22;6998;53.608;9.958;2023-04-28T16:03:24;13.70;99.90
13856;DHT22;6998;53.608;9.958;2023-04-28T16:05:53;13.50;99.90